Lancaster Airport
KLNS : rendu visible

Aérodrome :











RETROUVEZ-NOUS SUR...

 
LOGIN :

S'inscrire | Disclaimer

   EN    FR    IT 

 









Légende :    VFR   VFR Marginal   IFR   IFR Intensif   IFR Très Intensif
Visi : 
Plafond : 
>= 8 km
>= 3000ft
5 à 8 km
1000 à 3000 ft
1500m à 5 km
500 à 1000 ft
800 à 1500m
200 à 500 ft
< 800m
< 200 ft
Symboles :   Orages  Brouillard  Fortes neiges  Fortes précipitations  Vent > 20 kt






- Altitude de l'aérodrome : 403 ft
- Code IATA : LNS


KLNS - Lancaster

DERNIER METAR :
  • 241553Z 00000KT 10SM CLR 10/M04 A3004 RMK AO2 SLP175 T01001044

METARs EXPIRÉS :
  • 241453Z 00000KT 10SM CLR 07/M03 A3005 RMK AO2 SLP179 T00721028 50003
  • 241353Z 00000KT 10SM CLR 04/M04 A3007 RMK AO2 SLP184 T00391044

TAF KLNS
Valide du 24 à 12h jusqu'au 25 à 12h UTC


241143Z 2412/2512 VRB03KT P6SM SKC
FM241800 VRB03KT P6SM OVC250



MET'MAP, la Météo Aéronautique d'un coup d'oeil ! - Copyright ORBIFLY Décembre 2007 - Disclaimer

ORBIFLY MET'MAP TEAM :

Programmation & Développement : Alexandra Zaïnal
Sur une idée originale de : Baudouin d'Aumeries
Assistance à la programmation : Marc-Olivier Méhu
Soutien technique & logistique : Manuel Goepfert

Contact : metmap@orbifly.com




SOURCES & CREDITS :

   NOAA       Earth
Advisory